createdAt,value
2017-11-23T00:01:23.749Z,96557.13
2017-11-23T00:03:51.353Z,96546.98
2017-11-23T00:06:18.971Z,96543.13
2017-11-23T00:08:46.559Z,96539.09
2017-11-23T00:11:14.555Z,96541.36
2017-11-23T00:13:42.257Z,96542.27
2017-11-23T00:16:22.567Z,96547.70
2017-11-23T00:18:50.156Z,96549.28
2017-11-23T00:21:17.742Z,96542.02
2017-11-23T00:23:52.323Z,96543.85
2017-11-23T00:26:19.917Z,96539.63
2017-11-23T00:28:47.518Z,96538.22
2017-11-23T00:31:15.139Z,96549.04
2017-11-23T00:33:42.712Z,96538.62
2017-11-23T00:36:10.733Z,96536.35
2017-11-23T00:38:38.319Z,96533.37
2017-11-23T00:41:06.240Z,96537.94
2017-11-23T00:43:33.861Z,96528.27
2017-11-23T00:46:01.447Z,96528.89
2017-11-23T00:48:29.324Z,96526.35
2017-11-23T00:50:56.938Z,96522.31
2017-11-23T00:53:24.551Z,96516.98
2017-11-23T00:55:52.180Z,96521.15
2017-11-23T00:58:22.714Z,96516.98
2017-11-23T01:00:50.303Z,96511.35
2017-11-23T01:03:28.392Z,96512.88
2017-11-23T01:05:55.989Z,96513.89
2017-11-23T01:08:27.382Z,96513.45
2017-11-23T01:10:55.035Z,96516.67
2017-11-23T01:13:24.312Z,96514.23
2017-11-23T01:15:51.951Z,96517.40
2017-11-23T01:18:30.088Z,96506.72
2017-11-23T01:20:57.697Z,96506.06
2017-11-23T01:23:25.624Z,96504.38
2017-11-23T01:25:53.265Z,96502.70
2017-11-23T01:28:20.883Z,96504.48
2017-11-23T01:30:48.471Z,96508.52
2017-11-23T01:33:17.205Z,96508.08
2017-11-23T01:35:44.815Z,96499.23
2017-11-23T01:38:12.410Z,96505.43
2017-11-23T01:40:40.206Z,96501.92
2017-11-23T01:43:07.836Z,96498.50
2017-11-23T01:45:35.409Z,96505.91
2017-11-23T01:48:02.992Z,96502.92
2017-11-23T01:50:30.623Z,96503.63
2017-11-23T01:52:58.192Z,96498.16
2017-11-23T01:55:25.810Z,96504.73
2017-11-23T01:57:53.792Z,96507.47
2017-11-23T02:00:21.351Z,96510.73
2017-11-23T02:02:48.935Z,96510.78
2017-11-23T02:05:16.568Z,96508.33
2017-11-23T02:07:45.167Z,96504.48
2017-11-23T02:10:12.774Z,96510.73
2017-11-23T02:12:40.388Z,96516.44
2017-11-23T02:15:11.228Z,96513.95
2017-11-23T02:17:38.853Z,96514.80
2017-11-23T02:20:07.082Z,96506.83
2017-11-23T02:22:34.676Z,96517.59
2017-11-23T02:25:02.275Z,96520.95
2017-11-23T02:27:29.854Z,96522.22
2017-11-23T02:29:57.455Z,96531.38
2017-11-23T02:32:38.002Z,96537.20
2017-11-23T02:35:06.024Z,96534.27
2017-11-23T02:37:40.035Z,96532.63
2017-11-23T02:40:11.056Z,96539.11
2017-11-23T02:42:38.621Z,96542.90
2017-11-23T02:45:06.203Z,96547.91
2017-11-23T02:47:40.388Z,96552.08
2017-11-23T02:50:14.023Z,96560.33
2017-11-23T02:52:41.639Z,96560.81
2017-11-23T02:55:09.239Z,96558.28
2017-11-23T02:57:39.846Z,96557.94
2017-11-23T03:00:10.818Z,96568.03
2017-11-23T03:02:39.021Z,96560.98
2017-11-23T03:07:39.872Z,96552.28
2017-11-23T03:10:07.617Z,96550.98
2017-11-23T03:15:13.710Z,96535.97
2017-11-23T03:17:41.259Z,96529.75
2017-11-23T03:20:08.870Z,96522.81
2017-11-23T03:22:36.495Z,96520.16
2017-11-23T03:25:04.128Z,96528.90
2017-11-23T03:27:31.724Z,96530.58
2017-11-23T03:29:59.568Z,96542.74
2017-11-23T03:32:27.139Z,96536.98
2017-11-23T03:34:54.774Z,96534.10
2017-11-23T03:37:22.358Z,96527.53
2017-11-23T03:39:49.921Z,96529.24
2017-11-23T03:42:17.562Z,96532.85
2017-11-23T03:44:45.135Z,96534.10
2017-11-23T03:47:13.099Z,96525.16
2017-11-23T03:49:40.690Z,96529.19
2017-11-23T03:52:08.265Z,96521.53
2017-11-23T03:54:35.902Z,96518.36
2017-11-23T03:57:03.454Z,96519.39
2017-11-23T03:59:31.018Z,96514.34
2017-11-23T04:01:58.578Z,96520.20
2017-11-23T04:04:26.129Z,96521.52
2017-11-23T04:06:53.749Z,96520.37
2017-11-23T04:09:21.319Z,96521.67
2017-11-23T04:11:48.874Z,96526.05
2017-11-23T04:14:16.464Z,96538.93
2017-11-23T04:16:44.059Z,96540.66
2017-11-23T04:19:12.048Z,96540.27
2017-11-23T04:21:39.609Z,96526.59
2017-11-23T04:24:07.167Z,96518.23
2017-11-23T04:26:34.725Z,96516.23
2017-11-23T04:29:02.286Z,96524.33
2017-11-23T04:31:29.898Z,96528.84
2017-11-23T04:33:57.450Z,96530.58
2017-11-23T04:36:25.407Z,96539.91
2017-11-23T04:38:52.964Z,96554.99
2017-11-23T04:41:20.521Z,96562.38
2017-11-23T04:43:48.118Z,96566.41
2017-11-23T04:46:15.696Z,96562.94
2017-11-23T04:48:43.262Z,96558.75
2017-11-23T04:51:10.818Z,96550.01
2017-11-23T04:53:38.433Z,96546.06
2017-11-23T04:56:06.075Z,96566.48
2017-11-23T04:58:33.733Z,96565.66
2017-11-23T05:01:01.323Z,96560.81
2017-11-23T05:03:28.920Z,96561.25
2017-11-23T05:05:56.516Z,96557.83
2017-11-23T05:08:24.080Z,96565.44
2017-11-23T05:10:52.113Z,96564.72
2017-11-23T05:13:19.731Z,96568.10
2017-11-23T05:15:47.327Z,96568.96
2017-11-23T05:18:14.907Z,96569.71
2017-11-23T05:20:42.492Z,96570.04
2017-11-23T05:23:10.075Z,96565.05
2017-11-23T05:25:37.634Z,96561.30
2017-11-23T05:28:05.241Z,96560.11
2017-11-23T05:30:32.854Z,96560.05
2017-11-23T05:33:00.431Z,96555.02
2017-11-23T05:35:28.017Z,96562.94
2017-11-23T05:37:55.671Z,96559.19
2017-11-23T05:40:23.298Z,96566.23
2017-11-23T05:42:50.869Z,96561.96
2017-11-23T05:45:18.545Z,96565.11
2017-11-23T05:47:46.132Z,96565.55
2017-11-23T05:50:13.717Z,96573.67
2017-11-23T05:52:41.357Z,96587.36
2017-11-23T05:55:08.919Z,96586.91
2017-11-23T05:57:36.520Z,96588.42
2017-11-23T06:00:04.129Z,96585.38
2017-11-23T06:02:31.720Z,96580.45
2017-11-23T06:04:59.726Z,96585.38
2017-11-23T06:07:27.279Z,96583.87
2017-11-23T06:09:54.844Z,96584.84
2017-11-23T06:12:22.421Z,96587.78
2017-11-23T06:14:50.029Z,96600.35
2017-11-23T06:17:17.681Z,96603.54
2017-11-23T06:19:45.297Z,96599.30
2017-11-23T06:22:12.880Z,96601.41
2017-11-23T06:24:40.502Z,96603.85
2017-11-23T06:27:08.068Z,96610.16
2017-11-23T06:29:36.118Z,96620.47
2017-11-23T06:32:03.720Z,96626.56
2017-11-23T06:34:31.292Z,96628.28
2017-11-23T06:36:58.888Z,96625.58
2017-11-23T06:39:26.464Z,96620.89
2017-11-23T06:41:54.417Z,96613.03
2017-11-23T06:44:22.011Z,96607.72
2017-11-23T06:46:49.606Z,96611.97
2017-11-23T06:49:17.213Z,96619.66
2017-11-23T06:51:44.869Z,96632.75
2017-11-23T06:54:12.499Z,96645.22
2017-11-23T06:56:40.042Z,96646.23
2017-11-23T06:59:08.062Z,96642.22
2017-11-23T07:01:35.619Z,96653.80
2017-11-23T07:04:03.204Z,96678.78
2017-11-23T07:06:30.797Z,96687.02
2017-11-23T07:08:58.381Z,96685.17
2017-11-23T07:11:26.288Z,96697.77
2017-11-23T07:13:53.900Z,96692.08
2017-11-23T07:16:21.498Z,96688.58
2017-11-23T07:18:49.070Z,96697.81
2017-11-23T07:21:16.632Z,96700.74
2017-11-23T07:23:44.277Z,96705.89
2017-11-23T07:26:11.871Z,96707.22
2017-11-23T07:28:39.463Z,96707.56
2017-11-23T07:31:07.054Z,96697.38
2017-11-23T07:33:34.661Z,96696.36
2017-11-23T07:36:02.222Z,96700.23
2017-11-23T07:38:29.785Z,96695.47
2017-11-23T07:40:57.377Z,96708.23
2017-11-23T07:43:24.984Z,96696.92
2017-11-23T07:45:52.565Z,96699.70
2017-11-23T07:48:20.134Z,96700.42
2017-11-23T07:50:47.733Z,96692.83
2017-11-23T07:53:15.354Z,96692.46
2017-11-23T07:55:42.915Z,96683.27
2017-11-23T07:58:10.536Z,96682.69
2017-11-23T08:00:38.131Z,96692.52
2017-11-23T08:03:05.744Z,96688.22
2017-11-23T08:05:33.314Z,96681.53
2017-11-23T08:08:00.894Z,96687.30
2017-11-23T08:10:28.532Z,96681.73
2017-11-23T08:12:56.129Z,96691.72
2017-11-23T08:15:23.840Z,96697.91
2017-11-23T08:17:51.419Z,96709.56
2017-11-23T08:20:19.030Z,96710.36
2017-11-23T08:22:46.626Z,96699.03
2017-11-23T08:25:14.191Z,96707.17
2017-11-23T08:27:41.803Z,96706.02
2017-11-23T08:30:09.379Z,96719.22
2017-11-23T08:32:36.985Z,96720.29
2017-11-23T08:35:04.557Z,96718.03
2017-11-23T08:37:32.124Z,96720.39
2017-11-23T08:39:59.714Z,96711.44
2017-11-23T08:42:27.287Z,96715.88
2017-11-23T08:44:54.912Z,96714.95
2017-11-23T08:47:22.484Z,96714.09
2017-11-23T08:49:50.060Z,96714.05
2017-11-23T08:52:20.584Z,96715.67
2017-11-23T08:54:53.502Z,96713.96
2017-11-23T08:57:21.089Z,96716.02
2017-11-23T08:59:48.641Z,96715.46
2017-11-23T09:02:16.247Z,96718.20
2017-11-23T09:04:43.803Z,96726.47
2017-11-23T09:07:11.394Z,96726.00
2017-11-23T09:09:38.972Z,96728.47
2017-11-23T09:12:09.151Z,96727.12
2017-11-23T09:14:36.839Z,96723.73
2017-11-23T09:17:04.413Z,96731.75
2017-11-23T09:19:32.015Z,96729.18
2017-11-23T09:21:59.558Z,96731.50
2017-11-23T09:24:27.110Z,96727.99
2017-11-23T09:26:54.766Z,96726.27
2017-11-23T09:29:22.383Z,96739.58
2017-11-23T09:31:50.293Z,96732.17
2017-11-23T09:34:17.854Z,96733.31
2017-11-23T09:36:45.402Z,96734.88
2017-11-23T09:39:12.973Z,96730.08
2017-11-23T09:41:40.737Z,96732.03
2017-11-23T09:44:08.737Z,96719.73
2017-11-23T09:46:36.326Z,96726.63
2017-11-23T09:49:03.894Z,96726.50
2017-11-23T09:51:31.530Z,96728.44
2017-11-23T09:53:59.159Z,96727.89
2017-11-23T09:56:26.784Z,96725.20
2017-11-23T09:58:54.360Z,96723.25
2017-11-23T10:01:21.938Z,96721.30
2017-11-23T10:03:49.508Z,96726.91
2017-11-23T10:06:17.142Z,96727.53
2017-11-23T10:08:44.719Z,96724.86
2017-11-23T10:11:12.293Z,96719.29
2017-11-23T10:13:39.972Z,96720.02
2017-11-23T10:16:07.555Z,96713.57
2017-11-23T10:18:35.143Z,96724.35
2017-11-23T10:21:02.705Z,96714.49
2017-11-23T10:23:30.318Z,96710.52
2017-11-23T10:25:57.935Z,96710.38
2017-11-23T10:28:25.540Z,96708.09
2017-11-23T10:30:53.126Z,96692.39
2017-11-23T10:33:20.736Z,96700.70
2017-11-23T10:35:48.362Z,96712.80
2017-11-23T10:38:15.940Z,96710.99
2017-11-23T10:40:43.510Z,96695.30
2017-11-23T10:43:11.144Z,96706.02
2017-11-23T10:45:38.709Z,96701.13
2017-11-23T10:48:06.299Z,96706.80
2017-11-23T10:50:33.878Z,96709.91
2017-11-23T10:53:01.439Z,96711.32
2017-11-23T10:55:29.023Z,96706.81
2017-11-23T10:57:56.687Z,96696.42
2017-11-23T11:00:24.274Z,96699.88
2017-11-23T11:02:51.847Z,96695.76
2017-11-23T11:05:19.420Z,96694.58
2017-11-23T11:07:47.005Z,96698.89
2017-11-23T11:10:14.570Z,96697.71
2017-11-23T11:12:42.136Z,96689.49
2017-11-23T11:15:09.728Z,96691.24
2017-11-23T11:17:37.356Z,96698.45
2017-11-23T11:20:04.941Z,96693.06
2017-11-23T11:22:32.514Z,96692.73
2017-11-23T11:25:00.097Z,96696.66
2017-11-23T11:27:27.655Z,96695.90
2017-11-23T11:29:55.264Z,96698.95
2017-11-23T11:32:22.841Z,96705.38
2017-11-23T11:34:50.402Z,96707.54
2017-11-23T11:37:18.054Z,96708.42
2017-11-23T11:39:45.639Z,96704.68
2017-11-23T11:42:13.254Z,96699.20
2017-11-23T11:44:40.826Z,96696.31
2017-11-23T11:47:08.437Z,96697.16
2017-11-23T11:49:35.994Z,96698.84
2017-11-23T11:52:03.580Z,96706.02
2017-11-23T11:54:31.498Z,96698.45
2017-11-23T11:56:59.082Z,96703.94
2017-11-23T11:59:26.688Z,96698.86
2017-11-23T12:01:54.277Z,96699.66
2017-11-23T12:04:21.880Z,96699.70
2017-11-23T12:06:49.455Z,96697.62
2017-11-23T12:09:17.017Z,96700.67
2017-11-23T12:11:44.610Z,96699.50
2017-11-23T12:14:24.043Z,96694.06
2017-11-23T12:17:03.222Z,96695.38
2017-11-23T12:19:42.680Z,96697.16
2017-11-23T12:22:22.090Z,96690.52
2017-11-23T12:25:01.540Z,96697.38
2017-11-23T12:27:40.932Z,96699.95
2017-11-23T12:30:12.460Z,96696.20
2017-11-23T12:32:40.047Z,96700.03
2017-11-23T12:35:07.611Z,96696.70
2017-11-23T12:37:35.229Z,96697.16
2017-11-23T12:40:02.793Z,96688.74
2017-11-23T12:42:30.343Z,96689.62
2017-11-23T12:44:58.097Z,96693.45
2017-11-23T12:47:25.671Z,96698.12
2017-11-23T12:49:53.549Z,96690.95
2017-11-23T12:52:21.125Z,96698.59
2017-11-23T12:54:48.701Z,96694.47
2017-11-23T12:57:16.307Z,96690.27
2017-11-23T12:59:43.874Z,96695.38
2017-11-23T13:02:11.479Z,96701.28
2017-11-23T13:04:39.072Z,96696.20
2017-11-23T13:07:06.657Z,96702.56
2017-11-23T13:09:34.252Z,96710.19
2017-11-23T13:12:01.817Z,96711.95
2017-11-23T13:14:29.413Z,96706.08
2017-11-23T13:16:57.061Z,96706.10
2017-11-23T13:19:24.703Z,96699.80
2017-11-23T13:21:52.326Z,96701.52
2017-11-23T13:24:19.927Z,96703.25
2017-11-23T13:26:47.555Z,96705.36
2017-11-23T13:29:15.168Z,96705.36
2017-11-23T13:31:42.781Z,96706.22
2017-11-23T13:34:10.413Z,96698.61
2017-11-23T13:36:38.036Z,96700.76
2017-11-23T13:39:05.632Z,96707.14
2017-11-23T13:41:33.217Z,96710.97
2017-11-23T13:44:00.851Z,96715.19
2017-11-23T13:46:28.454Z,96717.28
2017-11-23T13:48:56.484Z,96721.47
2017-11-23T13:51:24.054Z,96720.17
2017-11-23T13:53:51.641Z,96709.14
2017-11-23T13:56:19.354Z,96714.17
2017-11-23T13:58:46.931Z,96708.67
2017-11-23T14:01:14.544Z,96724.30
2017-11-23T14:03:42.141Z,96732.75
2017-11-23T14:06:09.720Z,96728.48
2017-11-23T14:08:37.306Z,96739.42
2017-11-23T14:11:04.873Z,96730.59
2017-11-23T14:13:32.531Z,96746.19
2017-11-23T14:16:00.113Z,96730.95
2017-11-23T14:18:28.098Z,96730.89
2017-11-23T14:20:55.703Z,96731.30
2017-11-23T14:23:23.424Z,96748.96
2017-11-23T14:25:51.043Z,96747.13
2017-11-23T14:28:18.621Z,96750.43
2017-11-23T14:30:46.404Z,96748.29
2017-11-23T14:33:14.419Z,96747.84
2017-11-23T14:35:42.125Z,96749.47
2017-11-23T14:38:09.729Z,96751.11
2017-11-23T14:40:37.316Z,96750.61
2017-11-23T14:43:04.928Z,96756.02
2017-11-23T14:45:32.543Z,96755.53
2017-11-23T14:48:00.139Z,96755.86
2017-11-23T14:50:27.718Z,96754.51
2017-11-23T14:52:55.339Z,96758.66
2017-11-23T14:55:22.944Z,96769.95
2017-11-23T14:57:51.038Z,96773.24
2017-11-23T15:00:18.657Z,96777.36
2017-11-23T15:02:46.248Z,96777.28
2017-11-23T15:05:13.867Z,96787.28
2017-11-23T15:07:41.475Z,96793.16
2017-11-23T15:10:09.118Z,96794.80
2017-11-23T15:12:36.694Z,96799.80
2017-11-23T15:15:04.255Z,96795.92
2017-11-23T15:17:31.839Z,96802.19
2017-11-23T15:19:59.430Z,96795.39
2017-11-23T15:22:27.084Z,96788.98
2017-11-23T15:24:54.637Z,96794.38
2017-11-23T15:27:22.274Z,96796.38
2017-11-23T15:29:49.852Z,96802.19
2017-11-23T15:32:17.445Z,96799.55
2017-11-23T15:34:45.034Z,96802.42
2017-11-23T15:37:12.628Z,96793.92
2017-11-23T15:39:40.249Z,96788.39
2017-11-23T15:42:07.815Z,96791.20
2017-11-23T15:44:35.462Z,96781.03
2017-11-23T15:47:03.060Z,96787.72
2017-11-23T15:49:30.654Z,96785.52
2017-11-23T15:51:58.257Z,96780.39
2017-11-23T15:54:25.862Z,96785.30
2017-11-23T15:56:53.509Z,96779.69
2017-11-23T15:59:21.112Z,96784.22
2017-11-23T16:01:48.742Z,96782.05
2017-11-23T16:04:16.346Z,96786.63
2017-11-23T16:06:43.948Z,96793.74
2017-11-23T16:09:11.568Z,96797.08
2017-11-23T16:11:39.132Z,96799.53
2017-11-23T16:14:06.758Z,96813.77
2017-11-23T16:16:34.335Z,96812.91
2017-11-23T16:19:01.938Z,96817.50
2017-11-23T16:21:29.539Z,96816.56
2017-11-23T16:23:57.115Z,96811.31
2017-11-23T16:26:25.136Z,96820.50
2017-11-23T16:28:52.749Z,96821.66
2017-11-23T16:31:20.308Z,96827.00
2017-11-23T16:33:47.895Z,96833.60
2017-11-23T16:36:15.983Z,96837.31
2017-11-23T16:42:06.121Z,96844.16
2017-11-23T16:47:45.613Z,96839.72
2017-11-23T16:50:24.150Z,96849.69
2017-11-23T16:56:00.629Z,96853.20
2017-11-23T16:58:33.952Z,96851.85
2017-11-23T17:01:07.515Z,96854.72
2017-11-23T17:03:41.120Z,96856.68
2017-11-23T17:06:25.877Z,96853.67
2017-11-23T17:12:04.615Z,96854.65
2017-11-23T17:14:38.094Z,96852.47
2017-11-23T17:17:08.011Z,96847.73
2017-11-23T17:19:35.985Z,96850.58
2017-11-23T17:22:03.849Z,96850.09
2017-11-23T17:24:32.288Z,96850.45
2017-11-23T17:27:00.284Z,96855.36
2017-11-23T17:29:28.181Z,96860.70
2017-11-23T17:31:56.327Z,96853.87
2017-11-23T17:34:24.332Z,96857.52
2017-11-23T17:36:54.055Z,96855.27
2017-11-23T17:39:22.077Z,96861.92
2017-11-23T17:41:51.519Z,96867.25
2017-11-23T17:44:21.220Z,96866.28
2017-11-23T17:46:50.800Z,96862.73
2017-11-23T17:49:18.824Z,96865.15
2017-11-23T17:51:47.002Z,96863.42
2017-11-23T17:54:14.989Z,96864.58
2017-11-23T17:56:44.969Z,96862.31
2017-11-23T17:59:15.990Z,96865.52
2017-11-23T18:01:43.977Z,96871.56
2017-11-23T18:04:11.867Z,96863.00
2017-11-23T18:06:40.243Z,96872.52
2017-11-23T18:09:08.110Z,96868.59
2017-11-23T18:11:36.184Z,96869.71
2017-11-23T18:14:04.258Z,96870.50
2017-11-23T18:16:33.407Z,96868.34
2017-11-23T18:19:02.315Z,96868.66
2017-11-23T18:21:30.287Z,96872.70
2017-11-23T18:23:59.013Z,96863.84
2017-11-23T18:26:30.786Z,96864.66
2017-11-23T18:28:58.854Z,96867.53
2017-11-23T18:31:27.122Z,96868.20
2017-11-23T18:33:55.514Z,96875.16
2017-11-23T18:36:25.281Z,96877.98
2017-11-23T18:38:54.231Z,96875.31
2017-11-23T18:41:24.864Z,96877.36
2017-11-23T18:43:52.940Z,96878.18
2017-11-23T18:46:22.335Z,96873.00
2017-11-23T18:48:53.977Z,96877.13
2017-11-23T18:51:23.005Z,96885.48
2017-11-23T18:53:52.098Z,96888.39
2017-11-23T18:56:20.282Z,96888.27
2017-11-23T18:58:49.271Z,96882.66
2017-11-23T19:01:18.516Z,96880.88
2017-11-23T19:03:54.124Z,96882.84
2017-11-23T19:06:22.302Z,96878.94
2017-11-23T19:08:51.515Z,96891.89
2017-11-23T19:11:19.738Z,96880.12
2017-11-23T19:13:47.867Z,96882.16
2017-11-23T19:16:16.090Z,96883.37
2017-11-23T19:18:44.910Z,96879.83
2017-11-23T19:21:13.193Z,96888.58
2017-11-23T19:23:43.015Z,96883.34
2017-11-23T19:26:11.195Z,96891.70
2017-11-23T19:28:39.472Z,96893.39
2017-11-23T19:31:07.818Z,96890.87
2017-11-23T19:33:36.068Z,96897.55
2017-11-23T19:36:04.108Z,96895.42
2017-11-23T19:38:32.740Z,96903.34
2017-11-23T19:41:01.756Z,96899.89
2017-11-23T19:43:30.770Z,96898.89
2017-11-23T19:46:00.686Z,96908.03
2017-11-23T19:48:30.867Z,96918.00
2017-11-23T19:50:59.070Z,96918.81
2017-11-23T19:53:29.226Z,96922.48
2017-11-23T19:55:57.404Z,96927.00
2017-11-23T19:58:26.690Z,96921.06
2017-11-23T20:00:54.892Z,96923.48
2017-11-23T20:03:23.779Z,96919.59
2017-11-23T20:05:52.060Z,96921.23
2017-11-23T20:08:20.396Z,96917.89
2017-11-23T20:10:49.829Z,96922.83
2017-11-23T20:13:22.358Z,96920.70
2017-11-23T20:15:50.649Z,96922.73
2017-11-23T20:18:22.445Z,96920.14
2017-11-23T20:20:51.545Z,96916.24
2017-11-23T20:23:22.210Z,96925.46
2017-11-23T20:25:51.332Z,96926.66
2017-11-23T20:28:26.124Z,96923.72
2017-11-23T20:30:54.254Z,96916.19
2017-11-23T20:33:22.373Z,96904.42
2017-11-23T20:35:51.254Z,96909.02
2017-11-23T20:38:21.080Z,96918.58
2017-11-23T20:40:51.815Z,96912.69
2017-11-23T20:43:25.009Z,96915.88
2017-11-23T20:45:53.184Z,96911.20
2017-11-23T20:48:22.281Z,96909.84
2017-11-23T20:50:50.328Z,96920.58
2017-11-23T20:53:18.519Z,96926.70
2017-11-23T20:55:52.545Z,96926.18
2017-11-23T20:58:20.679Z,96915.14
2017-11-23T21:00:50.997Z,96927.20
2017-11-23T21:03:22.101Z,96932.56
2017-11-23T21:05:51.611Z,96941.69
2017-11-23T21:08:19.894Z,96942.75
2017-11-23T21:10:49.607Z,96940.44
2017-11-23T21:13:17.763Z,96951.23
2017-11-23T21:15:53.414Z,96956.70
2017-11-23T21:18:21.519Z,96950.08
2017-11-23T21:20:49.571Z,96948.40
2017-11-23T21:23:17.855Z,96957.66
2017-11-23T21:25:45.958Z,96953.08
2017-11-23T21:28:14.006Z,96948.49
2017-11-23T21:30:42.069Z,96946.38
2017-11-23T21:33:10.164Z,96947.14
2017-11-23T21:35:39.852Z,96945.01
2017-11-23T21:38:14.512Z,96951.28
2017-11-23T21:40:42.553Z,96966.23
2017-11-23T21:43:10.525Z,96949.11
2017-11-23T21:45:38.507Z,96954.91
2017-11-23T21:48:06.416Z,96955.67
2017-11-23T21:50:34.425Z,96957.64
2017-11-23T21:53:02.716Z,96956.30
2017-11-23T21:55:30.691Z,96958.27
2017-11-23T21:57:58.667Z,96955.19
2017-11-23T22:00:26.568Z,96963.91
2017-11-23T22:02:56.038Z,96965.93
2017-11-23T22:05:24.017Z,96957.06
2017-11-23T22:07:51.931Z,96969.16
2017-11-23T22:10:19.967Z,96965.69
2017-11-23T22:12:47.914Z,96967.28
2017-11-23T22:15:15.918Z,96968.48
2017-11-23T22:17:44.884Z,96973.45
2017-11-23T22:20:19.336Z,96973.11
2017-11-23T22:22:47.412Z,96974.31
2017-11-23T22:25:15.340Z,96970.45
2017-11-23T22:27:43.307Z,96980.19
2017-11-23T22:30:12.037Z,96981.05
2017-11-23T22:32:40.113Z,96979.38
2017-11-23T22:35:10.595Z,96983.48
2017-11-23T22:37:38.820Z,96986.84
2017-11-23T22:40:07.408Z,96983.52
2017-11-23T22:42:35.474Z,96987.23
2017-11-23T22:45:03.348Z,96991.81
2017-11-23T22:47:31.212Z,96998.47
2017-11-23T22:49:59.178Z,96998.84
2017-11-23T22:52:27.069Z,96991.70
2017-11-23T22:54:54.929Z,96992.95
2017-11-23T22:57:29.998Z,96997.14
2017-11-23T22:59:57.898Z,96994.55
2017-11-23T23:02:25.808Z,96990.41
2017-11-23T23:04:55.687Z,96991.22
2017-11-23T23:07:24.422Z,96985.30
2017-11-23T23:09:54.897Z,96979.07
2017-11-23T23:12:22.917Z,96981.15
2017-11-23T23:14:52.131Z,96980.33
2017-11-23T23:17:20.090Z,96982.83
2017-11-23T23:19:48.061Z,96978.62
2017-11-23T23:22:16.047Z,96981.05
2017-11-23T23:24:45.633Z,96979.36
2017-11-23T23:27:22.211Z,96979.31
2017-11-23T23:29:50.187Z,96982.64
2017-11-23T23:32:18.265Z,96984.75
2017-11-23T23:34:54.014Z,96987.25
2017-11-23T23:37:22.245Z,96979.69
2017-11-23T23:39:50.160Z,96983.02
2017-11-23T23:42:22.804Z,96982.16
2017-11-23T23:44:53.468Z,96984.27
2017-11-23T23:47:21.547Z,96980.02
2017-11-23T23:49:49.560Z,96974.52
2017-11-23T23:52:17.490Z,96975.00
2017-11-23T23:54:45.470Z,96974.09
2017-11-23T23:57:13.343Z,96973.61
2017-11-23T23:59:45.968Z,96975.20
